Map

Track Data

SID SEASON NUMBER BASIN SUBBASIN NAME ISO_TIME NATURE LAT LON WMO_WIND WMO_PRES WMO_AGENCY TRACK_TYPE DIST2LAND LANDFALL IFLAG USA_AGENCY USA_ATCF_ID USA_LAT USA_LON USA_RECORD USA_STATUS USA_WIND USA_PRES USA_SSHS USA_R34_NE USA_R34_SE USA_R34_SW USA_R34_NW USA_R50_NE USA_R50_SE USA_R50_SW USA_R50_NW USA_R64_NE USA_R64_SE USA_R64_SW USA_R64_NW USA_POCI USA_ROCI USA_RMW USA_EYE TOKYO_LAT TOKYO_LON TOKYO_GRADE TOKYO_WIND TOKYO_PRES TOKYO_R50_DIR TOKYO_R50_LONG TOKYO_R50_SHORT TOKYO_R30_DIR TOKYO_R30_LONG TOKYO_R30_SHORT TOKYO_LAND CMA_LAT CMA_LON CMA_CAT CMA_WIND CMA_PRES HKO_LAT HKO_LON HKO_CAT HKO_WIND HKO_PRES NEWDELHI_LAT NEWDELHI_LON NEWDELHI_GRADE NEWDELHI_WIND NEWDELHI_PRES NEWDELHI_CI NEWDELHI_DP NEWDELHI_POCI REUNION_LAT REUNION_LON REUNION_TYPE REUNION_WIND REUNION_PRES REUNION_TNUM REUNION_CI REUNION_RMW REUNION_R34_NE REUNION_R34_SE REUNION_R34_SW REUNION_R34_NW REUNION_R50_NE REUNION_R50_SE REUNION_R50_SW REUNION_R50_NW REUNION_R64_NE REUNION_R64_SE REUNION_R64_SW REUNION_R64_NW BOM_LAT BOM_LON BOM_TYPE BOM_WIND BOM_PRES BOM_TNUM BOM_CI BOM_RMW BOM_R34_NE BOM_R34_SE BOM_R34_SW BOM_R34_NW BOM_R50_NE BOM_R50_SE BOM_R50_SW BOM_R50_NW BOM_R64_NE BOM_R64_SE BOM_R64_SW BOM_R64_NW BOM_ROCI BOM_POCI BOM_EYE BOM_POS_METHOD BOM_PRES_METHOD NADI_LAT NADI_LON NADI_CAT NADI_WIND NADI_PRES WELLINGTON_LAT WELLINGTON_LON WELLINGTON_WIND WELLINGTON_PRES DS824_LAT DS824_LON DS824_STAGE DS824_WIND DS824_PRES TD9636_LAT TD9636_LON TD9636_STAGE TD9636_WIND TD9636_PRES TD9635_LAT TD9635_LON TD9635_WIND TD9635_PRES TD9635_ROCI NEUMANN_LAT NEUMANN_LON NEUMANN_CLASS NEUMANN_WIND NEUMANN_PRES MLC_LAT MLC_LON MLC_CLASS MLC_WIND MLC_PRES USA_GUST BOM_GUST BOM_GUST_PER REUNION_GUST REUNION_GUST_PER USA_SEAHGT USA_SEARAD_NE USA_SEARAD_SE USA_SEARAD_SW USA_SEARAD_NW STORM_SPEED STORM_DIR
1911032S14057 1911 7 SI MM NOT_NAMED 1911-02-01 06:00:00 NR -13.8000 57.3000 reunion spur-split 705 694 _____O________ -1 -13.8000 57.3000 99 9.90000 3 231
1911032S14057 1911 7 SI MM NOT_NAMED 1911-02-01 09:00:00 NR -13.8894 57.1868 spur-split 694 683 _____P________ -1 -13.8894 57.1868 99 3 231
1911032S14057 1911 7 SI MM NOT_NAMED 1911-02-01 12:00:00 NR -13.9798 57.0736 spur-split 683 673 _____P________ -1 -13.9798 57.0736 99 3 230
1911032S14057 1911 7 SI MM NOT_NAMED 1911-02-01 15:00:00 NR -14.0722 56.9605 spur-split 673 663 _____P________ -1 -14.0722 56.9605 99 3 230
1911032S14057 1911 7 SI MM NOT_NAMED 1911-02-01 18:00:00 NR -14.1677 56.8476 spur-split 664 653 _____P________ -1 -14.1677 56.8476 99 3 228
1911032S14057 1911 7 SI MM NOT_NAMED 1911-02-01 21:00:00 NR -14.2671 56.7350 spur-split 654 644 _____P________ -1 -14.2671 56.7350 99 3 227
1911032S14057 1911 7 SI MM NOT_NAMED 1911-02-02 00:00:00 NR -14.3716 56.6228 spur-split 644 635 _____P________ -1 -14.3716 56.6228 99 3 225
1911032S14057 1911 7 SI MM NOT_NAMED 1911-02-02 03:00:00 NR -14.4823 56.5111 spur-split 635 626 _____P________ -1 -14.4823 56.5111 99 3 223
1911032S14057 1911 7 SI MM NOT_NAMED 1911-02-02 06:00:00 NR -14.6000 56.4000 reunion spur-split 626 615 _____O________ -1 -14.6000 56.4000 99 9.90000 3 221
1911032S14057 1911 7 SI MM NOT_NAMED 1911-02-02 09:00:00 NR -14.7255 56.2896 spur-split 617 606 _____P________ -1 -14.7255 56.2896 99 3 219
1911032S14057 1911 7 SI MM NOT_NAMED 1911-02-02 12:00:00 NR -14.8575 56.1807 spur-split 597 589 _____P________ -1 -14.8575 56.1807 99 3 218
1911032S14057 1911 7 SI MM NOT_NAMED 1911-02-02 15:00:00 NR -14.9945 56.0739 spur-split 589 581 _____P________ -1 -14.9945 56.0739 99 3 216
1911032S14057 1911 7 SI MM NOT_NAMED 1911-02-02 18:00:00 NR -15.1350 55.9701 spur-split 581 563 _____P________ -1 -15.1350 55.9701 99 3 215
1911032S14057 1911 7 SI MM NOT_NAMED 1911-02-02 21:00:00 NR -15.2773 55.8700 spur-split 563 555 _____P________ -1 -15.2773 55.8700 99 3 214
1911032S14057 1911 7 SI MM NOT_NAMED 1911-02-03 00:00:00 NR -15.4200 55.7744 spur-split 555 538 _____P________ -1 -15.4200 55.7744 99 3 213
1911032S14057 1911 7 SI MM NOT_NAMED 1911-02-03 03:00:00 NR -15.5614 55.6842 spur-split 538 531 _____P________ -1 -15.5614 55.6842 99 3 211
1911032S14057 1911 7 SI MM NOT_NAMED 1911-02-03 06:00:00 NR -15.7000 55.6000 reunion spur-split 531 521 _____O________ -1 -15.7000 55.6000 99 9.90000 3 212
1911032S14057 1911 7 SI MM NOT_NAMED 1911-02-03 09:00:00 NR -15.8181 55.5196 spur-split 525 515 _____P________ -1 -15.8181 55.5196 99 3 213
1911032S14057 1911 7 SI MM NOT_NAMED 1911-02-03 12:00:00 NR -15.9327 55.4450 spur-split 519 509 _____P________ -1 -15.9327 55.4450 99 3 211
1911032S14057 1911 7 SI MM NOT_NAMED 1911-02-03 15:00:00 NR -16.0466 55.3760 spur-split 509 494 _____P________ -1 -16.0466 55.3760 99 3 209
1911032S14057 1911 7 SI MM NOT_NAMED 1911-02-03 18:00:00 NR -16.1624 55.3122 spur-split 494 484 _____P________ -1 -16.1624 55.3122 99 3 207
1911032S14057 1911 7 SI MM NOT_NAMED 1911-02-03 21:00:00 NR -16.2830 55.2530 spur-split 484 479 _____P________ -1 -16.2830 55.2530 99 3 204
1911032S14057 1911 7 SI MM NOT_NAMED 1911-02-04 00:00:00 NR -16.4109 55.1982 spur-split 479 470 _____P________ -1 -16.4109 55.1982 99 3 201
1911032S14057 1911 7 SI MM NOT_NAMED 1911-02-04 03:00:00 NR -16.5490 55.1473 spur-split 475 456 _____P________ -1 -16.5490 55.1473 99 3 198
1911032S14057 1911 7 SI MM NOT_NAMED 1911-02-04 06:00:00 NR -16.7000 55.1000 reunion spur-split 456 438 _____O________ -1 -16.7000 55.1000 99 9.90000 3 196
1911032S14057 1911 7 SI MM NOT_NAMED 1911-02-04 09:00:00 NR -16.8740 55.0456 spur-split 444 426 _____P________ -1 -16.8740 55.0456 99 4 196
1911032S14057 1911 7 SI MM NOT_NAMED 1911-02-04 12:00:00 NR -17.0609 54.9945 spur-split 426 417 _____P________ -1 -17.0609 54.9945 99 4 194
1911032S14057 1911 7 SI MM NOT_NAMED 1911-02-04 15:00:00 NR -17.2580 54.9475 spur-split 416 393 _____P________ -1 -17.2580 54.9475 99 4 192
1911032S14057 1911 7 SI MM NOT_NAMED 1911-02-04 18:00:00 NR -17.4625 54.9053 spur-split 393 371 _____P________ -1 -17.4625 54.9053 99 4 190
1911032S14057 1911 7 SI MM NOT_NAMED 1911-02-04 21:00:00 NR -17.6717 54.8686 spur-split 371 350 _____P________ -1 -17.6717 54.8686 99 4 189
1911032S14057 1911 7 SI MM NOT_NAMED 1911-02-05 00:00:00 NR -17.8828 54.8383 spur-split 350 328 _____P________ -1 -17.8828 54.8383 99 4 187
1911032S14057 1911 7 SI MM NOT_NAMED 1911-02-05 03:00:00 NR -18.0932 54.8152 spur-split 328 306 _____P________ -1 -18.0932 54.8152 99 4 185
1911032S14057 1911 7 SI MM NOT_NAMED 1911-02-05 06:00:00 NR -18.3000 54.8000 reunion spur-split 306 284 _____O________ -1 -18.3000 54.8000 99 9.90000 4 186
1911032S14057 1911 7 SI MM NOT_NAMED 1911-02-05 09:00:00 NR -18.4787 54.7769 spur-split 284 273 _____P________ -1 -18.4787 54.7769 99 4 187
1911032S14057 1911 7 SI MM NOT_NAMED 1911-02-05 12:00:00 NR -18.6536 54.7602 spur-split 262 251 _____P________ -1 -18.6536 54.7602 99 4 182
1911032S14057 1911 7 SI MM NOT_NAMED 1911-02-05 15:00:00 NR -18.8279 54.7518 spur-split 251 229 _____P________ -1 -18.8279 54.7518 99 4 183
1911032S14057 1911 7 SI MM NOT_NAMED 1911-02-05 18:00:00 NR -19.0048 54.7535 spur-split 229 207 _____P________ -1 -19.0048 54.7535 99 4 0
1911032S14057 1911 7 SI MM NOT_NAMED 1911-02-05 21:00:00 NR -19.1873 54.7673 spur-split 207 186 _____P________ -1 -19.1873 54.7673 99 4 175
1911032S14057 1911 7 SI MM NOT_NAMED 1911-02-06 00:00:00 NR -19.3786 54.7950 spur-split 186 165 _____P________ -1 -19.3786 54.7950 99 4 171
1911032S14057 1911 7 SI MM NOT_NAMED 1911-02-06 03:00:00 NR -19.5818 54.8386 spur-split 165 140 _____P________ -1 -19.5818 54.8386 99 4 168
1911032S14057 1911 7 SI MM NOT_NAMED 1911-02-06 06:00:00 NR -19.8000 54.9000 reunion spur-split 140 116 _____O________ -1 -19.8000 54.9000 99 9.90000 5 165
1911032S14057 1911 7 SI MM NOT_NAMED 1911-02-06 09:00:00 NR -20.0405 54.9698 spur-split 116 81 _____P________ -1 -20.0405 54.9698 99 5 163
1911032S14057 1911 7 SI MM NOT_NAMED 1911-02-06 12:00:00 NR -20.2955 55.0571 spur-split 81 56 _____P________ -1 -20.2955 55.0571 99 6 161
1911032S14057 1911 7 SI MM NOT_NAMED 1911-02-06 15:00:00 NR -20.5627 55.1610 spur-split 45 22 _____P________ -1 -20.5627 55.1610 99 6 159
1911032S14057 1911 7 SI MM NOT_NAMED 1911-02-06 18:00:00 NR -20.8398 55.2806 spur-split 22 0 _____P________ -1 -20.8398 55.2806 99 6 157
1911032S14057 1911 7 SI MM NOT_NAMED 1911-02-06 21:00:00 NR -21.1244 55.4152 spur-split 0 0 _____P________ -1 -21.1244 55.4152 99 6 155
1911032S14057 1911 7 SI MM NOT_NAMED 1911-02-07 00:00:00 NR -21.4141 55.5638 spur-split 0 0 _____P________ -1 -21.4141 55.5638 99 7 154
1911032S14057 1911 7 SI MM NOT_NAMED 1911-02-07 03:00:00 NR -21.7068 55.7257 spur-split 35 35 _____P________ -1 -21.7068 55.7257 99 7 152
1911032S14057 1911 7 SI MM NOT_NAMED 1911-02-07 06:00:00 NR -22.0000 55.9000 reunion spur-split 73 73 _____O________ -1 -22.0000 55.9000 99 9.90000 7 151
1911032S14057 1911 7 SI MM NOT_NAMED 1911-02-07 09:00:00 NR -22.3138 56.0941 spur-split 113 113 _____P________ -1 -22.3138 56.0941 99 7 149
1911032S14057 1911 7 SI MM NOT_NAMED 1911-02-07 12:00:00 NR -22.6334 56.3050 spur-split 152 152 _____P________ -1 -22.6334 56.3050 99 8 148
1911032S14057 1911 7 SI MM NOT_NAMED 1911-02-07 15:00:00 NR -22.9522 56.5269 spur-split 201 201 _____P________ -1 -22.9522 56.5269 99 8 147
1911032S14057 1911 7 SI MM NOT_NAMED 1911-02-07 18:00:00 NR -23.2635 56.7542 spur-split 245 245 _____P________ -1 -23.2635 56.7542 99 7 146
1911032S14057 1911 7 SI MM NOT_NAMED 1911-02-07 21:00:00 NR -23.5605 56.9812 spur-split 284 284 _____P________ -1 -23.5605 56.9812 99 7 144
1911032S14057 1911 7 SI MM NOT_NAMED 1911-02-08 00:00:00 NR -23.8367 57.2018 spur-split 314 314 _____P________ -1 -23.8367 57.2018 99 7 143
1911032S14057 1911 7 SI MM NOT_NAMED 1911-02-08 03:00:00 NR -24.0854 57.4101 spur-split 353 353 _____P________ -1 -24.0854 57.4101 99 6 142
1911032S14057 1911 7 SI MM NOT_NAMED 1911-02-08 06:00:00 NR -24.3000 57.6000 reunion spur-split 382 382 _____O________ -1 -24.3000 57.6000 99 9.90000 5 140
1911032S14057 1911 7 SI MM NOT_NAMED 1911-02-08 09:00:00 NR -24.4760 57.7669 spur-split 412 412 _____P________ -1 -24.4760 57.7669 99 4 138
1911032S14057 1911 7 SI MM NOT_NAMED 1911-02-08 12:00:00 NR -24.6166 57.9122 spur-split 426 426 _____P________ -1 -24.6166 57.9122 99 4 135
1911032S14057 1911 7 SI MM NOT_NAMED 1911-02-08 15:00:00 NR -24.7268 58.0388 spur-split 441 441 _____P________ -1 -24.7268 58.0388 99 3 132
1911032S14057 1911 7 SI MM NOT_NAMED 1911-02-08 18:00:00 NR -24.8117 58.1499 spur-split 456 456 _____P________ -1 -24.8117 58.1499 99 2 128
1911032S14057 1911 7 SI MM NOT_NAMED 1911-02-08 21:00:00 NR -24.8765 58.2484 spur-split 471 471 _____P________ -1 -24.8765 58.2484 99 2 124
1911032S14057 1911 7 SI MM NOT_NAMED 1911-02-09 00:00:00 NR -24.9261 58.3375 spur-split 476 476 _____P________ -1 -24.9261 58.3375 99 2 119
1911032S14057 1911 7 SI MM NOT_NAMED 1911-02-09 03:00:00 NR -24.9656 58.4203 spur-split 491 491 _____P________ -1 -24.9656 58.4203 99 2 117
1911032S14057 1911 7 SI MM NOT_NAMED 1911-02-09 06:00:00 NR -25.0000 58.5000 reunion spur-split 497 _____O________ -1 -25.0000 58.5000 99 9.90000 2 116

About IBTrACS Database

This database is a web-friendly format of International Best Track Archive for Climate Stewardship (IBTrACS), a global best track data archive curated by NOAA dating back to 1842.

Updated: 2021-12-01